Uni-arise — 3FSV7 — position and weather

sailwx.info

Track history (hours):
 
Tides and Currents Weather Stations Pressure Air Temp Water Temp Dewpoint Dewpoint Depression Visibility Wind Speed Wind Dir Waves Ship Positions

Uni-arise

Last reported at 2014-Aug-25 06:23 UTC. Time now 2014-Sep-02 04:11 UTC.
Position N 01°16' E 104°14'.

Length 165 m; draft 6.3 m.

Type: Cargo ship. MMSI: 351608000.

Date/timePositionNaut miles runAvg speedWind from/ knotsBaromVisibWave heightAir tempDewpointWater temp
2014-Aug-25 06:23N 01°16' E 104°14'1416.7
2014-Aug-25 05:33N 01°14' E 103°60'1111.6
2014-Aug-25 04:33N 01°12' E 103°48'5 4.3
2014-Aug-25 03:28N 01°16' E 103°46'0 0.0
2014-Aug-25 02:13N 01°16' E 103°46'0 0.1
2014-Aug-25 01:25N 01°16' E 103°47'0 0.1
2014-Aug-25 00:31N 01°16' E 103°46'0 0.1
2014-Aug-24 23:28N 01°16' E 103°47'0 0.1
2014-Aug-24 22:28N 01°16' E 103°46'0 0.0
2014-Aug-24 21:28N 01°16' E 103°46'0 0.1
2014-Aug-24 20:22N 01°16' E 103°47'0 0.0
2014-Aug-24 19:28N 01°16' E 103°47'0 0.0
2014-Aug-24 18:16N 01°16' E 103°46'0 0.0
2014-Aug-24 16:10N 01°16' E 103°46'0 0.1
2014-Aug-24 15:22N 01°16' E 103°47'3 3.6
2014-Aug-24 14:33N 01°14' E 103°47'6 6.2
2014-Aug-24 13:33N 01°14' E 103°54'6 5.8
2014-Aug-24 12:33N 01°15' E 103°59'0 0.4
2014-Aug-24 11:33N 01°15' E 103°60'  
2014-Aug-20 06:11N 01°15' E 104°08'915.1
2014-Aug-20 05:33N 01°14' E 103°58'  
2014-Aug-17 18:33N 01°12' E 103°52'1814.8
2014-Aug-17 17:20N 01°17' E 104°09'  
Track history (hours):
 
Tides and Currents Weather Stations Pressure Air Temp Water Temp Dewpoint Dewpoint Depression Visibility Wind Speed Wind Dir Waves Ship Positions

Uni-arise

Last reported at 2014-Aug-25 06:23 UTC. Time now 2014-Sep-02 04:11 UTC.
Position N 01°16' E 104°14'.

Length 165 m; draft 6.3 m.

Type: Cargo ship. MMSI: 351608000.

Date/timePositionNaut miles runAvg speedWind from/ knotsBaromVisibWave heightAir tempDewpointWater temp
2014-Aug-25 06:23N 01°16' E 104°14'1416.7
2014-Aug-25 05:33N 01°14' E 103°60'1111.6
2014-Aug-25 04:33N 01°12' E 103°48'5 4.3
2014-Aug-25 03:28N 01°16' E 103°46'0 0.0
2014-Aug-25 02:13N 01°16' E 103°46'0 0.1
2014-Aug-25 01:25N 01°16' E 103°47'0 0.1
2014-Aug-25 00:31N 01°16' E 103°46'0 0.1
2014-Aug-24 23:28N 01°16' E 103°47'0 0.1
2014-Aug-24 22:28N 01°16' E 103°46'0 0.0
2014-Aug-24 21:28N 01°16' E 103°46'0 0.1
2014-Aug-24 20:22N 01°16' E 103°47'0 0.0
2014-Aug-24 19:28N 01°16' E 103°47'0 0.0
2014-Aug-24 18:16N 01°16' E 103°46'0 0.0
2014-Aug-24 16:10N 01°16' E 103°46'0 0.1
2014-Aug-24 15:22N 01°16' E 103°47'3 3.6
2014-Aug-24 14:33N 01°14' E 103°47'6 6.2
2014-Aug-24 13:33N 01°14' E 103°54'6 5.8
2014-Aug-24 12:33N 01°15' E 103°59'0 0.4
2014-Aug-24 11:33N 01°15' E 103°60'  
2014-Aug-20 06:11N 01°15' E 104°08'915.1
2014-Aug-20 05:33N 01°14' E 103°58'  
2014-Aug-17 18:33N 01°12' E 103°52'1814.8
2014-Aug-17 17:20N 01°17' E 104°09'  

Dump ship's entire track history